Stations météo

Publicité
Le Puy, France (7471): Température de l'air & dewpoint: 02.07.2020 23:00:00 - 08.07.2020 23:00:00 (CEST)Le Puy, France (7471): Température de l'air 5cm: 02.07.2020 23:00:00 - 08.07.2020 23:00:00 (CEST)Le Puy, France (7471): Température de l'air -20cm & Température de l'air -100cm: 02.07.2020 23:00:00 - 08.07.2020 23:00:00 (CEST)Le Puy, France (7471): Vitesse du vent & gusts: 02.07.2020 23:00:00 - 08.07.2020 23:00:00 (CEST)Le Puy, France (7471): Direction du vent: 02.07.2020 23:00:00 - 08.07.2020 23:00:00 (CEST)Le Puy, France (7471): visibility: 02.07.2020 23:00:00 - 08.07.2020 23:00:00 (CEST)Le Puy, France (7471): Ensoleillement: 02.07.2020 23:00:00 - 08.07.2020 23:00:00 (CEST)Le Puy, France (7471): Quantités de précipitations: 02.07.2020 23:00:00 - 08.07.2020 23:00:00 (CEST)
Date & Time tt [°C] td [°C] tt 5cm [°C] tt -20cm [°C] tt -100cm [°C] ff [km/h] ff [knt] fx [km/h] fx [knt] dd vv [km] sd [min] rr [mm]
08.07.2020 23:00:00 15,1 9,0 14,0 19,6 15,0 10 5 14 7 SW 20 0 0,0
08.07.2020 22:00:00 18,4 9,2 15,5 19,5 15,0 6 4 12 6 WSW 16 6 0,0
08.07.2020 21:00:00 21,9 9,4 18,6 19,4 15,0 7 4 15 8 NNE 20 60 0,0
08.07.2020 20:00:00 24,4 7,9 25,6 19,2 15,0 10 5 21 11 ENE 20 60 0,0
08.07.2020 19:00:00 25,5 6,2 27,3 19,0 15,0 7 4 21 11 ESE 20 60 0,0
08.07.2020 18:00:00 25,6 7,7 31,7 18,7 14,9 9 5 19 10 E 20 60 0,0
08.07.2020 17:00:00 25,4 7,0 32,4 18,5 14,9 8 5 21 11 SE 20 60 0,0
08.07.2020 16:00:00 24,9 7,1 32,1 18,3 14,9 7 4 20 11 E 20 60 0,0
08.07.2020 15:00:00 23,9 7,9 31,7 18,1 14,9 6 4 22 12 ENE 20 60 0,0
08.07.2020 14:00:00 23,1 6,8 30,5 18,0 14,9 8 4 25 13 N 20 60 0,0
08.07.2020 13:00:00 21,5 6,2 28,5 18,0 14,9 6 4 21 11 E 20 60 0,0
08.07.2020 12:00:00 19,9 5,9 25,4 18,1 15,0 7 4 21 11 NE 20 60 0,0
08.07.2020 11:00:00 18,4 6,9 23,9 18,1 14,9 10 5 22 12 NE 20 60 0,0
08.07.2020 10:00:00 17,1 6,3 20,6 18,2 14,9 4 2 11 6 NE 20 42 0,0
08.07.2020 09:00:00 15,1 8,3 13,1 18,3 14,9 3 2 8 4 ENE 20 35 0,0
08.07.2020 08:00:00 10,7 7,0 10,7 18,5 14,9 2 1 7 4 N 20 15 0,0
08.07.2020 07:00:00 9,7 6,2 4,1 18,7 14,9 0 0 6 4 N 20 28 0,0
08.07.2020 06:00:00 6,1 3,9 3,3 18,8 14,9 3 2 5 3 NNW 20 0 0,0
08.07.2020 05:00:00 8,5 4,5 5,8 19,0 15,0 3 2 15 8 W 20 0 0,0
08.07.2020 04:00:00 9,3 4,9 7,4 19,0 14,9 7 4 13 7 WSW 20 0 0,0
08.07.2020 03:00:00 9,4 5,2 7,7 19,2 14,9 10 5 14 8 SW 20 0 0,0
08.07.2020 02:00:00 10,1 5,5 8,4 19,2 14,9 10 5 12 7 SW 20 0 0,0
08.07.2020 01:00:00 10,4 5,8 8,6 19,2 14,9 8 4 10 5 WSW 20 0 0,0
08.07.2020 00:00:00 10,7 6,1 9,2 19,3 14,9 9 5 12 7 SW 20 0 0,0
07.07.2020 23:00:00 12,0 6,3 9,8 19,3 14,9 4 2 9 5 WSW 20 0 0,0
07.07.2020 22:00:00 15,0 6,8 11,7 19,2 14,9 6 3 8 5 WSW 20 5 0,0
07.07.2020 21:00:00 18,3 5,5 15,0 19,2 14,9 5 3 17 9 NNE 20 60 0,0
07.07.2020 20:00:00 19,8 5,4 21,2 19,0 14,9 12 7 21 11 ENE 20 60 0,0
07.07.2020 19:00:00 20,6 4,2 22,3 18,9 14,9 12 7 29 16 E 20 60 0,0
07.07.2020 18:00:00 21,3 6,0 26,2 18,7 14,9 16 8 33 18 ENE 20 60 0,0
07.07.2020 17:00:00 21,0 4,1 27,2 18,5 14,9 18 10 35 19 ENE 20 60 0,0
07.07.2020 16:00:00 21,9 5,3 27,9 18,4 14,9 19 10 32 18 ENE 20 60 0,0
07.07.2020 15:00:00 21,2 3,8 28,5 18,2 14,9 13 7 33 18 NE 20 60 0,0
07.07.2020 14:00:00 20,4 5,2 26,9 18,2 14,9 15 8 32 17 NE 20 60 0,0
07.07.2020 13:00:00 19,3 3,8 25,4 18,2 14,9 19 10 39 21 NNE 20 60 0,0
07.07.2020 12:00:00 17,8 4,4 23,3 18,2 14,8 18 10 35 19 NNE 20 60 0,0
07.07.2020 11:00:00 16,5 4,2 20,6 18,3 14,8 18 10 30 16 NNE 20 60 0,0
07.07.2020 10:00:00 15,1 5,0 19,6 18,4 14,8 23 13 36 20 NNE 20 60 0,0
07.07.2020 09:00:00 13,7 5,3 17,2 18,6 14,8 16 9 26 14 N 20 60 0,0
07.07.2020 08:00:00 12,6 5,3 11,9 18,8 14,8 16 9 24 13 NNW 20 60 0,0
07.07.2020 07:00:00 10,7 4,2 8,8 18,9 14,8 11 6 21 11 NW 20 29 0,0
07.07.2020 06:00:00 10,1 3,6 7,8 19,1 14,9 10 6 20 11 NW 20 0 0,0
07.07.2020 05:00:00 9,6 3,8 7,9 19,2 14,8 13 7 27 15 NNW 20 0 0,0
07.07.2020 04:00:00 10,5 4,0 9,1 19,3 14,8 14 8 22 12 NW 20 0 0,0
07.07.2020 03:00:00 10,9 4,1 8,1 19,5 14,8 13 7 26 14 NW 20 0 0,0
07.07.2020 02:00:00 10,3 4,6 8,3 19,6 14,8 15 8 22 12 NNW 20 0 0,0
07.07.2020 01:00:00 10,3 5,1 8,6 19,8 14,8 15 8 23 12 NNW 20 0 0,0
07.07.2020 00:00:00 11,5 5,1 9,5 19,8 14,8 13 7 19 11 NNW 20 0 0,0
06.07.2020 23:00:00 11,6 5,2 7,4 19,8 14,8 12 7 20 11 NNW 20 0 0,0
06.07.2020 22:00:00 13,2 5,1 10,9 19,8 14,8 10 6 26 14 NNW 20 5 0,0
06.07.2020 21:00:00 16,0 4,4 15,0 19,8 14,8 21 11 37 20 NNW 20 60 0,0
06.07.2020 20:00:00 17,8 5,7 20,0 19,6 14,8 26 14 41 22 N 20 60 0,0
06.07.2020 19:00:00 19,3 6,7 21,6 19,5 14,8 23 13 45 24 N 20 60 0,0
06.07.2020 18:00:00 20,5 6,8 26,2 19,4 14,8 23 12 42 23 N 20 60 0,0
06.07.2020 17:00:00 21,2 6,3 25,2 19,2 14,8 24 13 41 22 N 20 49 0,0
06.07.2020 16:00:00 20,0 9,5 23,0 19,1 14,8 23 13 42 23 N 20 44 0,0
06.07.2020 15:00:00 21,0 9,3 24,0 19,0 14,7 23 13 49 26 NNW 20 35 0,0
06.07.2020 14:00:00 20,4 9,6 24,2 19,0 14,8 23 12 41 22 NNW 20 52 0,0
06.07.2020 13:00:00 19,8 11,3 22,9 19,0 14,8 18 10 36 19 NW 20 19 0,0
06.07.2020 12:00:00 19,2 12,5 20,0 19,0 14,8 15 8 27 15 N 20 31 0,0
06.07.2020 11:00:00 16,8 13,3 19,3 19,1 14,8 12 7 30 16 N 20 13 0,0
06.07.2020 10:00:00 17,2 12,7 18,5 19,2 14,8 21 11 31 17 NW 20 3 0,0
06.07.2020 09:00:00 17,8 12,7 17,0 19,4 14,8 16 9 26 14 NW 20 30 0,0
06.07.2020 08:00:00 15,7 13,7 15,8 19,5 14,8 9 5 15 8 NNW 20 20 0,0
06.07.2020 07:00:00 12,7 11,8 10,0 19,6 14,8 3 2 9 5 WSW 20 30 0,0
06.07.2020 06:00:00 11,7 10,8 8,6 19,8 14,8 3 1 10 6 WSW 20 0 0,0
06.07.2020 05:00:00 12,4 10,5 10,9 19,9 14,8 5 3 16 9 WSW 20 0 0,0
06.07.2020 04:00:00 12,9 11,6 11,1 20,0 14,8 9 5 11 6 SW 20 0 0,0
06.07.2020 03:00:00 13,4 12,0 11,4 20,1 14,8 7 4 11 6 SW 20 0 0,0
06.07.2020 02:00:00 13,6 11,8 10,9 20,2 14,7 7 4 9 5 SW 20 0 0,0
06.07.2020 01:00:00 15,4 12,7 12,7 20,2 14,8 4 2 9 5 WSW 20 0 0,0
06.07.2020 00:00:00 18,6 13,2 16,6 20,2 14,8 7 4 14 8 WNW 20 0 0,0
05.07.2020 23:00:00 20,0 13,5 18,7 20,2 14,8 9 5 29 16 WNW 20 0 0,0
05.07.2020 22:00:00 20,6 13,3 16,8 20,1 14,7 13 7 18 10 NW 20 4 0,0
05.07.2020 21:00:00 22,3 13,6 20,9 20,0 14,8 10 6 24 13 NNW 20 60 0,0
05.07.2020 20:00:00 24,9 13,8 27,1 19,8 14,7 13 7 25 14 N 20 56 0,0
05.07.2020 19:00:00 25,5 13,7 27,4 19,6 14,7 15 8 26 14 N 20 40 0,0
05.07.2020 18:00:00 26,6 13,3 28,5 19,3 14,7 13 7 26 14 NNW 20 33 0,0
05.07.2020 17:00:00 26,9 15,3 28,7 19,1 14,7 12 6 32 17 WNW 20 47 0,0
05.07.2020 16:00:00 26,1 14,2 29,4 18,8 14,7 6 3 31 17 NE 19 43 0,0
05.07.2020 15:00:00 25,9 14,7 32,9 18,7 14,7 9 5 32 17 NNW 20 60 0,0
05.07.2020 14:00:00 24,8 14,6 27,7 18,5 14,7 13 7 29 15 NNW 20 46 0,0
05.07.2020 13:00:00 23,1 14,1 27,7 18,5 14,7 11 6 28 15 NNW 20 50 0,0
05.07.2020 12:00:00 22,2 14,3 25,5 18,5 14,7 10 5 20 11 NW 20 40 0,0
05.07.2020 11:00:00 21,0 13,4 27,4 18,5 14,7 6 3 17 9 NNE 20 52 0,0
05.07.2020 10:00:00 18,9 13,3 19,1 18,6 14,7 6 4 13 7 ENE 20 53 0,0
05.07.2020 09:00:00 16,1 12,5 15,5 18,7 14,7 3 1 7 4 E 20 0 0,0
05.07.2020 08:00:00 13,9 11,9 13,4 18,9 14,7 4 2 11 6 SE 20 0 0,0
05.07.2020 07:00:00 12,7 10,6 11,1 19,0 14,7 6 3 12 6 NNW 20 0 0,0
05.07.2020 06:00:00 11,4 9,6 8,9 19,1 14,7 5 3 10 6 WSW 20 0 0,0
05.07.2020 05:00:00 11,1 9,0 8,7 19,2 14,7 4 2 9 5 WSW 20 0 0,0
05.07.2020 04:00:00 11,5 9,4 9,9 19,3 14,7 2 1 9 5 WSW 20 0 0,0
05.07.2020 03:00:00 12,5 9,7 11,3 19,4 14,7 6 4 11 6 SW 20 0 0,0
05.07.2020 02:00:00 14,5 9,9 12,4 19,5 14,7 5 3 13 7 W 20 0 0,0
05.07.2020 01:00:00 16,0 9,6 15,0 19,5 14,7 11 6 20 11 WNW 20 0 0,0
05.07.2020 00:00:00 16,8 9,0 15,5 19,5 14,7 12 6 21 11 NW 20 0 0,0
04.07.2020 23:00:00 17,5 9,4 16,2 19,5 14,7 5 3 15 8 WNW 20 0 0,0
04.07.2020 22:00:00 18,3 9,6 17,1 19,4 14,7 11 6 15 8 NW 20 9 0,0
04.07.2020 21:00:00 19,3 9,8 18,1 19,2 14,7 9 5 19 10 NNW 20 35 0,0
04.07.2020 20:00:00 22,0 8,8 24,3 19,1 14,7 13 7 25 14 N 20 60 0,0
04.07.2020 19:00:00 23,0 7,5 24,4 18,9 14,7 17 9 32 17 N 20 60 0,0
04.07.2020 18:00:00 22,9 7,0 27,9 18,7 14,7 18 10 31 17 NW 20 60 0,0
04.07.2020 17:00:00 22,7 8,8 28,5 18,4 14,7 14 7 30 16 NW 20 60 0,0
04.07.2020 16:00:00 22,0 9,2 28,5 18,2 14,6 13 7 34 19 WNW 20 60 0,0
04.07.2020 15:00:00 21,2 9,4 29,0 18,0 14,6 7 4 29 16 NW 20 60 0,0
04.07.2020 14:00:00 20,3 9,5 26,1 17,9 14,6 7 4 25 13 NNW 20 56 0,0
04.07.2020 13:00:00 19,0 10,0 21,5 17,9 14,6 10 6 24 13 NNW 20 41 0,0
04.07.2020 12:00:00 17,8 9,4 23,3 17,9 14,6 10 5 22 12 NW 20 47 0,0
04.07.2020 11:00:00 17,0 7,6 19,9 18,0 14,6 13 7 21 12 NNW 20 60 0,0
04.07.2020 10:00:00 15,2 7,7 18,6 18,1 14,6 11 6 26 14 NE 20 54 0,0
04.07.2020 09:00:00 14,4 8,6 20,0 18,2 14,6 11 6 18 10 NNE 20 60 0,0
04.07.2020 08:00:00 13,0 7,9 13,3 18,4 14,6 4 2 8 4 NNW 20 60 0,0
04.07.2020 07:00:00 8,9 7,0 5,8 18,6 14,6 3 1 6 4 ESE 20 31 0,0
04.07.2020 06:00:00 8,4 6,4 6,1 18,7 14,6 4 2 11 6 WSW 20 0 0,0
04.07.2020 05:00:00 10,7 7,2 8,1 18,9 14,6 6 3 14 7 WNW 20 0 0,0
04.07.2020 04:00:00 10,6 7,7 6,6 19,0 14,6 6 3 11 6 W 20 0 0,0
04.07.2020 03:00:00 10,1 7,2 7,4 19,1 14,6 3 2 19 11 E 20 0 0,0
04.07.2020 02:00:00 11,3 7,4 9,5 19,2 14,6 11 6 25 13 NNW 20 0 0,0
04.07.2020 01:00:00 12,3 7,4 11,0 19,3 14,6 18 10 31 17 NNW 20 0 0,0
04.07.2020 00:00:00 12,4 7,3 10,8 19,3 14,6 14 8 27 14 NNW 20 0 0,0
03.07.2020 23:00:00 12,9 6,9 11,2 19,3 14,5 11 6 21 11 NNW 20 0 0,0
03.07.2020 22:00:00 14,4 7,4 13,2 19,4 14,6 15 8 25 14 NNW 20 0 0,0
03.07.2020 21:00:00 15,5 7,3 15,6 19,4 14,6 20 11 33 18 NNW 20 10 0,0
03.07.2020 20:00:00 16,4 8,1 17,2 19,3 14,6 16 9 32 17 N 20 5 0,0
03.07.2020 19:00:00 16,6 7,0 18,6 19,3 14,5 21 11 37 20 N 20 4 0,0
03.07.2020 18:00:00 16,9 7,0 18,9 19,2 14,6 30 16 41 22 NNW 20 7 0,0
03.07.2020 17:00:00 17,3 7,6 20,1 19,1 14,6 26 14 43 23 NNW 20 5 0,0
03.07.2020 16:00:00 18,5 8,5 19,9 19,0 14,5 21 12 41 22 NNW 20 29 0,0
03.07.2020 15:00:00 17,1 8,8 18,3 18,9 14,5 26 14 41 22 NW 20 24 0,0
03.07.2020 14:00:00 17,5 7,8 20,0 18,9 14,5 21 11 40 21 N 20 18 0,0
03.07.2020 13:00:00 18,2 5,7 18,5 18,9 14,5 22 12 39 21 NNW 20 51 0,0
03.07.2020 12:00:00 15,9 7,1 19,8 18,9 14,5 22 12 38 21 NNE 20 27 0,0
03.07.2020 11:00:00 16,1 7,0 20,5 19,0 14,5 25 14 36 19 N 20 49 0,0
03.07.2020 10:00:00 14,9 8,1 16,2 19,1 14,5 25 13 36 19 N 20 54 0,0
03.07.2020 09:00:00 13,6 8,2 14,7 19,2 14,5 23 13 34 19 NNW 20 41 0,0
03.07.2020 08:00:00 12,6 9,1 14,7 19,3 14,5 12 7 19 10 N 20 37 0,0
03.07.2020 07:00:00 12,1 8,9 11,2 19,5 14,5 5 3 15 8 N 20 21 0,0
03.07.2020 06:00:00 12,0 9,0 11,3 19,6 14,5 8 4 25 13 NNW 20 0 0,0
03.07.2020 05:00:00 12,5 8,8 12,3 19,7 14,5 18 10 29 16 NW 20 0 0,0
03.07.2020 04:00:00 12,8 8,9 12,5 19,9 14,5 16 9 28 15 NW 20 0 0,0
03.07.2020 03:00:00 12,8 9,8 12,0 20,0 14,5 9 5 13 7 NW 20 0 0,0
03.07.2020 02:00:00 13,2 9,3 12,3 20,1 14,5 8 4 15 8 WNW 20 0 0,0
03.07.2020 01:00:00 13,7 9,5 12,9 20,1 14,5 9 5 12 7 NNW 20 0 0,0
03.07.2020 00:00:00 14,4 10,2 12,7 20,2 14,5 7 4 10 6 NNW 20 0 0,0
02.07.2020 23:00:00 13,6 10,0 12,5 20,2 14,5 3 1 25 14 W 20 0 0,0

tt = Température de l'air
td = dewpoint
tt 5cm = Température de l'air 5cm
tt -20cm = Température de l'air -20cm
tt -100cm = Température de l'air -100cm
ff = Vitesse du vent
fx = gusts
dd = Direction du vent
vv = visibility
sd = Ensoleillement
rr = Quantités de précipitations

stations d'obs. à proximité